Whitmore Lake, Michigan
Current Conditions -  °F | °C
As of 6:53 PM on Saturday 25 Oct 2014 (Local Time) from KARB Reporting Station
Clear Clear  
Wind Chill: 60°   Ceiling: Unl
Heat Index: 60°   Visibility: 10mi
Dew Point: 28°   Wind: 14mph
Humidity: 30%   Direction: 290°WNW
Pressure: 29.79"   Gusts: 21mph
Location:  42.43°N, 83.75°W
Report Text: KARB 252253Z AUTO 29012G18KT 10SM CLR 16/M02 A2979 RMK AO2 PK WND 30027/2223 RAB22E31 SLP087 P0000 T01561022
Loading
Personal Weather Stations






























Interactive Weather Map
Tropical Storm Tracking
New forecast layout! Learn more

10-Day Weather Forecast

Advertisements
Track Severe Weather on mobile